Página principal
METAR-TAF:

METAR-TAF

Aeroportos :

Bucareste, Roménia

Aeroporto Internacional Henri Coandă

latitude: 44-33N, longitude: 026-06E, altura: 95 m

Observação actual do tempo

O boletim foi feito há 31 minutos, às 19:30 UTC
Vento 9 kt de sudoeste
Temperatura 6°C
Humidade 87%
Pressão 1016 hPa
Visibilidade 10 km ou mais
sem nuvens abaixo de 1500 metros e sem cumulonimbus

METAR: LROP 121930Z 23009KT CAVOK 06/04 Q1016 NOSIG

Hora: 22:01 (20:01 UTC)

Previsão

O boletim foi feito há 3 horas e 1 minutos, às 17:00 UTC
Previsão válida de 12 às 18 UTC a 13 às 18 UTC
Vento 12 kt de oes-sudoeste
Visibilidade 10 km ou mais
sem nuvens abaixo de 1500 metros e sem cumulonimbus

TAF: LROP 121700Z 1218/1318 25012KT CAVOK

Observações e previsões do tempo de mais de 4000 aeroportos (mensagens METAR e TAF).

As estações disponíveis são os pontos amarelos e vermelhos sobre o mapa.

Mova o rato sobre o mapa para ver o nome da estação.

Depois clique no ponto para visualizar as observações e previsões meteorológicas.

Para alterar o mapa : clique nos botões verdes com uma cruz preta para aumentar o zoom; no botão verde com uma pitada de zoom; ou nas setas verdes para mapas adjacentes.


METAR-TAF: